Time,TemperatureF,DewpointF,PressureIn,WindDirection,WindDirectionDegrees,WindSpeedMPH,WindSpeedGustMPH,Humidity,HourlyPrecipIn,Conditions,Clouds,dailyrainin,SoftwareType,DateUTC
2013-04-27 00:01:00,46.5,43.7,30.44,East,89,1.0,4.0,90,0.00,,,0.00,HR-IXPWINDi_r2_v1.2.,2013-04-27 04:01:00,
2013-04-27 00:06:00,46.4,43.6,30.44,ENE,70,2.0,4.0,90,0.00,,,0.00,HR-IXPWINDi_r2_v1.2.,2013-04-27 04:06:00,
2013-04-27 00:11:00,46.4,43.6,30.43,ENE,68,0.0,4.0,90,0.00,,,0.00,HR-IXPWINDi_r2_v1.2.,2013-04-27 04:11:00,
2013-04-27 00:16:00,46.3,43.5,30.43,East,81,0.0,4.0,90,0.00,,,0.00,HR-IXPWINDi_r2_v1.2.,2013-04-27 04:16:00,
2013-04-27 00:21:00,46.2,43.7,30.43,East,88,2.0,5.0,91,0.00,,,0.00,HR-IXPWINDi_r2_v1.2.,2013-04-27 04:21:00,
2013-04-27 00:27:00,46.2,43.7,30.44,East,86,1.0,5.0,91,0.00,,,0.00,HR-IXPWINDi_r2_v1.2.,2013-04-27 04:27:00,
2013-04-27 00:32:00,46.1,43.6,30.44,East,92,0.0,3.0,91,0.00,,,0.00,HR-IXPWINDi_r2_v1.2.,2013-04-27 04:32:00,
2013-04-27 00:37:00,45.8,43.3,30.44,East,95,0.0,2.0,91,0.00,,,0.00,HR-IXPWINDi_r2_v1.2.,2013-04-27 04:37:00,
2013-04-27 00:42:00,45.7,43.2,30.44,ESE,107,1.0,1.0,91,0.00,,,0.00,HR-IXPWINDi_r2_v1.2.,2013-04-27 04:42:00,
2013-04-27 00:48:00,45.7,43.5,30.43,SE,125,0.0,1.0,92,0.00,,,0.00,HR-IXPWINDi_r2_v1.2.,2013-04-27 04:48:00,
2013-04-27 00:53:00,45.5,43.0,30.43,SE,125,0.0,1.0,91,0.00,,,0.00,HR-IXPWINDi_r2_v1.2.,2013-04-27 04:53:00,
2013-04-27 00:58:00,45.2,42.7,30.43,SE,125,0.0,1.0,91,0.00,,,0.00,HR-IXPWINDi_r2_v1.2.,2013-04-27 04:58:00,
2013-04-27 01:04:00,45.2,43.0,30.43,ESE,122,0.0,1.0,92,0.00,,,0.00,HR-IXPWINDi_r2_v1.2.,2013-04-27 05:04:00,
2013-04-27 01:09:00,45.3,43.1,30.43,East,99,0.0,2.0,92,0.00,,,0.00,HR-IXPWINDi_r2_v1.2.,2013-04-27 05:09:00,
2013-04-27 01:14:00,45.3,42.8,30.43,East,101,0.0,2.0,91,0.00,,,0.00,HR-IXPWINDi_r2_v1.2.,2013-04-27 05:14:00,
2013-04-27 01:19:00,44.5,42.0,30.43,North,349,1.0,2.0,91,0.00,,,0.00,HR-IXPWINDi_r2_v1.2.,2013-04-27 05:19:00,
2013-04-27 01:24:00,43.9,41.4,30.43,NNW,336,2.0,2.0,91,0.00,,,0.00,HR-IXPWINDi_r2_v1.2.,2013-04-27 05:24:00,
2013-04-27 01:30:00,43.3,41.1,30.44,NNW,340,3.0,3.0,92,0.00,,,0.00,HR-IXPWINDi_r2_v1.2.,2013-04-27 05:30:00,
2013-04-27 01:35:00,43.0,41.1,30.43,NNW,345,3.0,3.0,93,0.00,,,0.00,HR-IXPWINDi_r2_v1.2.,2013-04-27 05:35:00,
2013-04-27 01:40:00,43.3,41.6,30.44,North,11,3.0,5.0,94,0.00,,,0.00,HR-IXPWINDi_r2_v1.2.,2013-04-27 05:40:00,
2013-04-27 01:46:00,43.4,41.7,30.43,North,10,3.0,5.0,94,0.00,,,0.00,HR-IXPWINDi_r2_v1.2.,2013-04-27 05:46:00,
2013-04-27 01:51:00,43.2,41.5,30.43,NNW,336,3.0,6.0,94,0.00,,,0.00,HR-IXPWINDi_r2_v1.2.,2013-04-27 05:51:00,
2013-04-27 01:56:00,43.1,41.4,30.43,NNW,330,4.0,6.0,94,0.00,,,0.00,HR-IXPWINDi_r2_v1.2.,2013-04-27 05:56:00,
2013-04-27 02:02:00,42.9,41.2,30.43,North,355,3.0,5.0,94,0.00,,,0.00,HR-IXPWINDi_r2_v1.2.,2013-04-27 06:02:00,
2013-04-27 02:07:00,42.8,41.1,30.44,NNW,342,3.0,5.0,94,0.00,,,0.00,HR-IXPWINDi_r2_v1.2.,2013-04-27 06:07:00,
2013-04-27 02:12:00,42.7,41.0,30.43,NNE,23,2.0,4.0,94,0.00,,,0.00,HR-IXPWINDi_r2_v1.2.,2013-04-27 06:12:00,
2013-04-27 02:17:00,42.6,40.9,30.43,North,11,3.0,4.0,94,0.00,,,0.00,HR-IXPWINDi_r2_v1.2.,2013-04-27 06:17:00,
2013-04-27 02:22:00,42.4,40.7,30.43,North,1,2.0,4.0,94,0.00,,,0.00,HR-IXPWINDi_r2_v1.2.,2013-04-27 06:22:00,
2013-04-27 02:27:00,42.4,41.0,30.43,NNE,23,2.0,3.0,95,0.00,,,0.00,HR-IXPWINDi_r2_v1.2.,2013-04-27 06:27:00,
2013-04-27 02:32:00,42.4,41.0,30.43,North,8,3.0,4.0,95,0.00,,,0.00,HR-IXPWINDi_r2_v1.2.,2013-04-27 06:32:00,
2013-04-27 02:38:00,42.4,41.0,30.43,NNE,23,2.0,4.0,95,0.00,,,0.00,HR-IXPWINDi_r2_v1.2.,2013-04-27 06:38:00,
2013-04-27 02:43:00,42.4,41.0,30.43,NNE,26,2.0,4.0,95,0.00,,,0.00,HR-IXPWINDi_r2_v1.2.,2013-04-27 06:43:00,
2013-04-27 02:48:00,42.2,40.8,30.43,North,9,3.0,3.0,95,0.00,,,0.00,HR-IXPWINDi_r2_v1.2.,2013-04-27 06:48:00,
2013-04-27 02:53:00,42.2,40.8,30.43,NNE,20,2.0,4.0,95,0.00,,,0.00,HR-IXPWINDi_r2_v1.2.,2013-04-27 06:53:00,
2013-04-27 02:58:00,42.2,41.1,30.43,NNE,32,3.0,4.0,96,0.00,,,0.00,HR-IXPWINDi_r2_v1.2.,2013-04-27 06:58:00,
2013-04-27 03:04:00,42.2,41.1,30.43,NE,35,2.0,4.0,96,0.00,,,0.00,HR-IXPWINDi_r2_v1.2.,2013-04-27 07:04:00,
2013-04-27 03:09:00,42.2,41.1,30.43,NNE,29,2.0,5.0,96,0.00,,,0.00,HR-IXPWINDi_r2_v1.2.,2013-04-27 07:09:00,
2013-04-27 03:14:00,42.2,41.1,30.43,NNE,19,3.0,5.0,96,0.00,,,0.00,HR-IXPWINDi_r2_v1.2.,2013-04-27 07:14:00,
2013-04-27 03:19:00,42.2,41.1,30.43,NNE,25,2.0,5.0,96,0.00,,,0.00,HR-IXPWINDi_r2_v1.2.,2013-04-27 07:19:00,
2013-04-27 03:24:00,42.1,41.0,30.43,NNE,23,1.0,4.0,96,0.00,,,0.00,HR-IXPWINDi_r2_v1.2.,2013-04-27 07:24:00,
2013-04-27 03:29:00,41.9,40.8,30.43,NNE,18,1.0,3.0,96,0.00,,,0.00,HR-IXPWINDi_r2_v1.2.,2013-04-27 07:29:00,
2013-04-27 03:34:00,41.9,40.8,30.43,NNE,18,2.0,3.0,96,0.00,,,0.00,HR-IXPWINDi_r2_v1.2.,2013-04-27 07:34:00,
2013-04-27 03:39:00,41.8,40.7,30.43,NNE,27,2.0,3.0,96,0.00,,,0.00,HR-IXPWINDi_r2_v1.2.,2013-04-27 07:39:00,
2013-04-27 03:45:00,41.8,40.7,30.43,NNE,30,2.0,3.0,96,0.00,,,0.00,HR-IXPWINDi_r2_v1.2.,2013-04-27 07:45:00,
2013-04-27 03:50:00,41.7,40.6,30.43,NNE,29,1.0,4.0,96,0.00,,,0.00,HR-IXPWINDi_r2_v1.2.,2013-04-27 07:50:00,
2013-04-27 03:55:00,41.7,40.6,30.43,NNE,26,2.0,4.0,96,0.00,,,0.00,HR-IXPWINDi_r2_v1.2.,2013-04-27 07:55:00,
2013-04-27 04:00:00,41.7,40.6,30.43,NNE,30,2.0,5.0,96,0.00,,,0.00,HR-IXPWINDi_r2_v1.2.,2013-04-27 08:00:00,
2013-04-27 04:05:00,41.7,40.6,30.43,NNE,13,3.0,5.0,96,0.00,,,0.00,HR-IXPWINDi_r2_v1.2.,2013-04-27 08:05:00,
2013-04-27 04:10:00,41.7,40.6,30.43,NNE,22,3.0,6.0,96,0.00,,,0.00,HR-IXPWINDi_r2_v1.2.,2013-04-27 08:10:00,
2013-04-27 04:15:00,41.7,40.6,30.43,NNE,33,2.0,6.0,96,0.00,,,0.00,HR-IXPWINDi_r2_v1.2.,2013-04-27 08:15:00,
2013-04-27 04:21:00,41.6,40.5,30.42,North,11,3.0,5.0,96,0.00,,,0.00,HR-IXPWINDi_r2_v1.2.,2013-04-27 08:21:00,
2013-04-27 04:26:00,41.5,40.4,30.43,NNE,15,3.0,4.0,96,0.00,,,0.00,HR-IXPWINDi_r2_v1.2.,2013-04-27 08:26:00,
2013-04-27 04:31:00,41.5,40.4,30.43,North,6,3.0,4.0,96,0.00,,,0.00,HR-IXPWINDi_r2_v1.2.,2013-04-27 08:31:00,
2013-04-27 04:36:00,41.4,40.3,30.43,NNE,12,4.0,4.0,96,0.00,,,0.00,HR-IXPWINDi_r2_v1.2.,2013-04-27 08:36:00,
2013-04-27 04:42:00,41.3,40.2,30.43,NNE,13,3.0,5.0,96,0.00,,,0.00,HR-IXPWINDi_r2_v1.2.,2013-04-27 08:42:00,
2013-04-27 04:47:00,41.2,40.1,30.43,North,357,4.0,5.0,96,0.00,,,0.00,HR-IXPWINDi_r2_v1.2.,2013-04-27 08:47:00,
2013-04-27 04:52:00,41.1,40.0,30.43,NNE,12,2.0,5.0,96,0.00,,,0.00,HR-IXPWINDi_r2_v1.2.,2013-04-27 08:52:00,
2013-04-27 04:57:00,41.0,40.2,30.43,NNE,20,3.0,5.0,97,0.00,,,0.00,HR-IXPWINDi_r2_v1.2.,2013-04-27 08:57:00,
2013-04-27 05:03:00,40.9,40.1,30.42,North,5,3.0,4.0,97,0.00,,,0.00,HR-IXPWINDi_r2_v1.2.,2013-04-27 09:03:00,
2013-04-27 05:08:00,40.8,40.0,30.42,NNE,15,3.0,4.0,97,0.00,,,0.00,HR-IXPWINDi_r2_v1.2.,2013-04-27 09:08:00,
2013-04-27 05:13:00,40.9,40.1,30.42,North,354,3.0,5.0,97,0.00,,,0.00,HR-IXPWINDi_r2_v1.2.,2013-04-27 09:13:00,
2013-04-27 05:18:00,40.8,40.0,30.42,North,9,4.0,6.0,97,0.00,,,0.00,HR-IXPWINDi_r2_v1.2.,2013-04-27 09:18:00,
2013-04-27 05:24:00,40.7,39.9,30.42,NNE,16,5.0,6.0,97,0.00,,,0.00,HR-IXPWINDi_r2_v1.2.,2013-04-27 09:24:00,
2013-04-27 05:29:00,40.7,39.9,30.42,NNE,22,4.0,5.0,97,0.00,,,0.00,HR-IXPWINDi_r2_v1.2.,2013-04-27 09:29:00,
2013-04-27 05:34:00,40.6,39.8,30.42,North,7,3.0,5.0,97,0.00,,,0.00,HR-IXPWINDi_r2_v1.2.,2013-04-27 09:34:00,
2013-04-27 05:39:00,40.6,39.8,30.42,NNE,19,3.0,5.0,97,0.00,,,0.00,HR-IXPWINDi_r2_v1.2.,2013-04-27 09:39:00,
2013-04-27 05:44:00,40.6,39.8,30.42,NNE,23,4.0,5.0,97,0.00,,,0.00,HR-IXPWINDi_r2_v1.2.,2013-04-27 09:44:00,
2013-04-27 05:49:00,40.6,39.8,30.42,NNE,29,2.0,5.0,97,0.00,,,0.00,HR-IXPWINDi_r2_v1.2.,2013-04-27 09:49:00,
2013-04-27 05:54:00,40.6,39.8,30.42,NNE,15,4.0,5.0,97,0.00,,,0.00,HR-IXPWINDi_r2_v1.2.,2013-04-27 09:54:00,
2013-04-27 05:59:00,40.6,39.8,30.42,NNE,27,3.0,4.0,97,0.00,,,0.00,HR-IXPWINDi_r2_v1.2.,2013-04-27 09:59:00,
2013-04-27 06:04:00,40.6,39.8,30.42,NNE,12,4.0,4.0,97,0.00,,,0.00,HR-IXPWINDi_r2_v1.2.,2013-04-27 10:04:00,
2013-04-27 06:10:00,40.6,39.8,30.42,North,359,1.0,4.0,97,0.00,,,0.00,HR-IXPWINDi_r2_v1.2.,2013-04-27 10:10:00,
2013-04-27 06:15:00,40.5,39.7,30.43,NNE,20,2.0,4.0,97,0.00,,,0.00,HR-IXPWINDi_r2_v1.2.,2013-04-27 10:15:00,
2013-04-27 06:20:00,40.5,39.7,30.42,NNE,20,2.0,4.0,97,0.00,,,0.00,HR-IXPWINDi_r2_v1.2.,2013-04-27 10:20:00,
2013-04-27 06:25:00,40.7,39.9,30.43,NNE,15,3.0,4.0,97,0.00,,,0.00,HR-IXPWINDi_r2_v1.2.,2013-04-27 10:25:00,
2013-04-27 06:30:00,40.9,40.1,30.43,North,355,2.0,4.0,97,0.00,,,0.00,HR-IXPWINDi_r2_v1.2.,2013-04-27 10:30:00,
2013-04-27 06:36:00,41.2,40.4,30.43,NNE,15,2.0,4.0,97,0.00,,,0.00,HR-IXPWINDi_r2_v1.2.,2013-04-27 10:36:00,
2013-04-27 06:41:00,41.6,40.8,30.43,NNE,16,2.0,3.0,97,0.00,,,0.00,HR-IXPWINDi_r2_v1.2.,2013-04-27 10:41:00,
2013-04-27 06:46:00,41.9,41.1,30.43,NNE,12,2.0,3.0,97,0.00,,,0.00,HR-IXPWINDi_r2_v1.2.,2013-04-27 10:46:00,
2013-04-27 06:51:00,42.4,41.6,30.43,NNE,22,2.0,4.0,97,0.00,,,0.00,HR-IXPWINDi_r2_v1.2.,2013-04-27 10:51:00,
2013-04-27 06:56:00,42.7,41.9,30.43,NNE,26,2.0,5.0,97,0.00,,,0.00,HR-IXPWINDi_r2_v1.2.,2013-04-27 10:56:00,
2013-04-27 07:01:00,42.9,42.1,30.43,North,6,3.0,6.0,97,0.00,,,0.00,HR-IXPWINDi_r2_v1.2.,2013-04-27 11:01:00,
2013-04-27 07:07:00,43.2,42.4,30.43,NE,55,3.0,6.0,97,0.00,,,0.00,HR-IXPWINDi_r2_v1.2.,2013-04-27 11:07:00,
2013-04-27 07:12:00,43.4,42.5,30.43,NNE,17,1.0,5.0,97,0.00,,,0.00,HR-IXPWINDi_r2_v1.2.,2013-04-27 11:12:00,
2013-04-27 07:17:00,43.7,42.8,30.43,NNE,20,3.0,7.0,97,0.00,,,0.00,HR-IXPWINDi_r2_v1.2.,2013-04-27 11:17:00,
2013-04-27 07:22:00,44.2,43.3,30.43,North,7,2.0,7.0,97,0.00,,,0.00,HR-IXPWINDi_r2_v1.2.,2013-04-27 11:22:00,
2013-04-27 07:28:00,44.8,43.7,30.43,NNE,15,4.0,5.0,96,0.00,,,0.00,HR-IXPWINDi_r2_v1.2.,2013-04-27 11:28:00,
2013-04-27 07:33:00,45.2,44.1,30.43,North,11,5.0,6.0,96,0.00,,,0.00,HR-IXPWINDi_r2_v1.2.,2013-04-27 11:33:00,
2013-04-27 07:38:00,45.7,44.6,30.43,NE,46,4.0,6.0,96,0.00,,,0.00,HR-IXPWINDi_r2_v1.2.,2013-04-27 11:38:00,
2013-04-27 07:43:00,46.0,44.6,30.43,North,355,4.0,6.0,95,0.00,,,0.00,HR-IXPWINDi_r2_v1.2.,2013-04-27 11:43:00,
2013-04-27 07:48:00,46.4,44.7,30.43,NNE,30,3.0,7.0,94,0.00,,,0.00,HR-IXPWINDi_r2_v1.2.,2013-04-27 11:48:00,
2013-04-27 07:54:00,46.5,44.5,30.44,NE,40,5.0,7.0,93,0.00,,,0.00,HR-IXPWINDi_r2_v1.2.,2013-04-27 11:54:00,
2013-04-27 07:59:00,46.2,44.2,30.44,North,360,3.0,7.0,93,0.00,,,0.00,HR-IXPWINDi_r2_v1.2.,2013-04-27 11:59:00,
2013-04-27 08:04:00,46.5,44.5,30.44,NE,39,2.0,7.0,93,0.00,,,0.00,HR-IXPWINDi_r2_v1.2.,2013-04-27 12:04:00,
2013-04-27 08:10:00,46.7,44.7,30.44,NNE,19,2.0,7.0,93,0.00,,,0.00,HR-IXPWINDi_r2_v1.2.,2013-04-27 12:10:00,
2013-04-27 08:15:00,46.9,44.6,30.44,NNE,15,5.0,7.0,92,0.00,,,0.00,HR-IXPWINDi_r2_v1.2.,2013-04-27 12:15:00,
2013-04-27 08:20:00,47.1,44.8,30.44,North,4,3.0,6.0,92,0.00,,,0.00,HR-IXPWINDi_r2_v1.2.,2013-04-27 12:20:00,
2013-04-27 08:26:00,47.5,45.2,30.44,NNE,13,1.0,6.0,92,0.00,,,0.00,HR-IXPWINDi_r2_v1.2.,2013-04-27 12:26:00,
2013-04-27 08:31:00,48.2,45.9,30.44,ENE,65,3.0,5.0,92,0.00,,,0.00,HR-IXPWINDi_r2_v1.2.,2013-04-27 12:31:00,
2013-04-27 08:36:00,48.1,45.2,30.44,NE,40,3.0,5.0,90,0.00,,,0.00,HR-IXPWINDi_r2_v1.2.,2013-04-27 12:36:00,
2013-04-27 08:41:00,48.1,45.2,30.44,SE,128,0.0,5.0,90,0.00,,,0.00,HR-IXPWINDi_r2_v1.2.,2013-04-27 12:41:00,
2013-04-27 08:47:00,49.1,46.2,30.44,NE,41,2.0,4.0,90,0.00,,,0.00,HR-IXPWINDi_r2_v1.2.,2013-04-27 12:47:00,
2013-04-27 08:52:00,49.3,46.1,30.44,East,98,1.0,3.0,89,0.00,,,0.00,HR-IXPWINDi_r2_v1.2.,2013-04-27 12:52:00,
2013-04-27 08:57:00,49.7,46.5,30.44,ENE,76,2.0,4.0,89,0.00,,,0.00,HR-IXPWINDi_r2_v1.2.,2013-04-27 12:57:00,
2013-04-27 09:02:00,50.0,46.5,30.44,SSE,156,1.0,4.0,88,0.00,,,0.00,HR-IXPWINDi_r2_v1.2.,2013-04-27 13:02:00,
2013-04-27 09:07:00,50.5,46.4,30.44,NE,54,3.0,4.0,86,0.00,,,0.00,HR-IXPWINDi_r2_v1.2.,2013-04-27 13:07:00,
2013-04-27 09:12:00,50.7,46.6,30.44,ENE,74,2.0,4.0,86,0.00,,,0.00,HR-IXPWINDi_r2_v1.2.,2013-04-27 13:12:00,
2013-04-27 09:18:00,51.2,46.5,30.44,ENE,61,1.0,4.0,84,0.00,,,0.00,HR-IXPWINDi_r2_v1.2.,2013-04-27 13:18:00,
2013-04-27 09:23:00,52.0,46.9,30.44,East,92,2.0,3.0,83,0.00,,,0.00,HR-IXPWINDi_r2_v1.2.,2013-04-27 13:23:00,
2013-04-27 09:28:00,52.1,46.7,30.43,SE,136,2.0,4.0,82,0.00,,,0.00,HR-IXPWINDi_r2_v1.2.,2013-04-27 13:28:00,
2013-04-27 09:33:00,52.4,46.4,30.43,ENE,78,3.0,5.0,80,0.00,,,0.00,HR-IXPWINDi_r2_v1.2.,2013-04-27 13:33:00,
2013-04-27 09:39:00,52.3,46.3,30.43,ENE,71,5.0,6.0,80,0.00,,,0.00,HR-IXPWINDi_r2_v1.2.,2013-04-27 13:39:00,
2013-04-27 09:44:00,52.4,45.7,30.43,East,85,4.0,7.0,78,0.00,,,0.00,HR-IXPWINDi_r2_v1.2.,2013-04-27 13:44:00,
2013-04-27 09:49:00,52.0,45.0,30.43,ESE,103,7.0,7.0,77,0.00,,,0.00,HR-IXPWINDi_r2_v1.2.,2013-04-27 13:49:00,
2013-04-27 09:55:00,52.4,45.0,30.43,East,86,3.0,7.0,76,0.00,,,0.00,HR-IXPWINDi_r2_v1.2.,2013-04-27 13:55:00,
2013-04-27 10:00:00,52.7,44.9,30.43,ENE,58,4.0,7.0,75,0.00,,,0.00,HR-IXPWINDi_r2_v1.2.,2013-04-27 14:00:00,
2013-04-27 10:05:00,52.5,45.1,30.43,ENE,58,3.0,9.0,76,0.00,,,0.00,HR-IXPWINDi_r2_v1.2.,2013-04-27 14:05:00,
2013-04-27 10:10:00,52.9,44.8,30.43,ENE,75,5.0,9.0,74,0.00,,,0.00,HR-IXPWINDi_r2_v1.2.,2013-04-27 14:10:00,
2013-04-27 10:16:00,53.2,44.7,30.44,East,98,3.0,7.0,73,0.00,,,0.00,HR-IXPWINDi_r2_v1.2.,2013-04-27 14:16:00,
2013-04-27 10:21:00,53.5,44.3,30.43,SE,126,3.0,7.0,71,0.00,,,0.00,HR-IXPWINDi_r2_v1.2.,2013-04-27 14:21:00,
2013-04-27 10:26:00,53.0,44.5,30.44,East,88,5.0,8.0,73,0.00,,,0.00,HR-IXPWINDi_r2_v1.2.,2013-04-27 14:26:00,
2013-04-27 10:31:00,53.6,45.5,30.44,ENE,61,3.0,8.0,74,0.00,,,0.00,HR-IXPWINDi_r2_v1.2.,2013-04-27 14:31:00,
2013-04-27 10:36:00,53.8,46.0,30.44,ENE,75,4.0,7.0,75,0.00,,,0.00,HR-IXPWINDi_r2_v1.2.,2013-04-27 14:36:00,
2013-04-27 10:42:00,53.2,45.4,30.44,SE,124,4.0,6.0,75,0.00,,,0.00,HR-IXPWINDi_r2_v1.2.,2013-04-27 14:42:00,
2013-04-27 10:47:00,53.4,47.0,30.44,NE,56,4.0,6.0,79,0.00,,,0.00,HR-IXPWINDi_r2_v1.2.,2013-04-27 14:47:00,
2013-04-27 10:52:00,53.4,46.3,30.44,East,82,4.0,7.0,77,0.00,,,0.00,HR-IXPWINDi_r2_v1.2.,2013-04-27 14:52:00,
2013-04-27 10:57:00,53.1,46.0,30.44,ESE,104,5.0,8.0,77,0.00,,,0.00,HR-IXPWINDi_r2_v1.2.,2013-04-27 14:57:00,
2013-04-27 11:02:00,53.2,45.8,30.44,East,81,7.0,8.0,76,0.00,,,0.00,HR-IXPWINDi_r2_v1.2.,2013-04-27 15:02:00,
2013-04-27 11:07:00,52.8,45.7,30.44,ENE,75,3.0,7.0,77,0.00,,,0.00,HR-IXPWINDi_r2_v1.2.,2013-04-27 15:07:00,
2013-04-27 11:12:00,52.8,45.7,30.44,East,98,2.0,7.0,77,0.00,,,0.00,HR-IXPWINDi_r2_v1.2.,2013-04-27 15:12:00,
2013-04-27 11:17:00,53.1,46.0,30.44,East,79,5.0,7.0,77,0.00,,,0.00,HR-IXPWINDi_r2_v1.2.,2013-04-27 15:17:00,
2013-04-27 11:22:00,53.7,46.3,30.44,East,89,4.0,7.0,76,0.00,,,0.00,HR-IXPWINDi_r2_v1.2.,2013-04-27 15:22:00,
2013-04-27 11:27:00,53.5,46.1,30.44,ESE,103,4.0,7.0,76,0.00,,,0.00,HR-IXPWINDi_r2_v1.2.,2013-04-27 15:27:00,
2013-04-27 11:33:00,53.5,46.4,30.44,ENE,58,4.0,8.0,77,0.00,,,0.00,HR-IXPWINDi_r2_v1.2.,2013-04-27 15:33:00,
2013-04-27 11:38:00,53.3,45.9,30.44,ENE,73,4.0,8.0,76,0.00,,,0.00,HR-IXPWINDi_r2_v1.2.,2013-04-27 15:38:00,
2013-04-27 11:43:00,53.6,45.8,30.44,ENE,78,4.0,8.0,75,0.00,,,0.00,HR-IXPWINDi_r2_v1.2.,2013-04-27 15:43:00,
2013-04-27 11:48:00,53.3,46.2,30.44,SE,139,5.0,7.0,77,0.00,,,0.00,HR-IXPWINDi_r2_v1.2.,2013-04-27 15:48:00,
2013-04-27 11:53:00,54.1,46.6,30.44,SSE,151,4.0,7.0,76,0.00,,,0.00,HR-IXPWINDi_r2_v1.2.,2013-04-27 15:53:00,
2013-04-27 11:58:00,53.8,46.0,30.43,ESE,103,3.0,7.0,75,0.00,,,0.00,HR-IXPWINDi_r2_v1.2.,2013-04-27 15:58:00,
2013-04-27 12:03:00,54.2,46.7,30.43,SSE,150,4.0,7.0,76,0.00,,,0.00,HR-IXPWINDi_r2_v1.2.,2013-04-27 16:03:00,
2013-04-27 12:09:00,53.9,45.7,30.43,SSE,151,4.0,8.0,74,0.00,,,0.00,HR-IXPWINDi_r2_v1.2.,2013-04-27 16:09:00,
2013-04-27 12:14:00,53.7,45.9,30.43,SSE,148,5.0,8.0,75,0.00,,,0.00,HR-IXPWINDi_r2_v1.2.,2013-04-27 16:14:00,
2013-04-27 12:19:00,53.5,45.7,30.43,SE,139,6.0,8.0,75,0.00,,,0.00,HR-IXPWINDi_r2_v1.2.,2013-04-27 16:19:00,
2013-04-27 12:24:00,53.2,45.1,30.43,SE,145,7.0,8.0,74,0.00,,,0.00,HR-IXPWINDi_r2_v1.2.,2013-04-27 16:24:00,
2013-04-27 12:29:00,52.4,43.2,30.43,SSE,162,6.0,10.0,71,0.00,,,0.00,HR-IXPWINDi_r2_v1.2.,2013-04-27 16:29:00,
2013-04-27 12:34:00,52.6,44.1,30.43,East,83,5.0,10.0,73,0.00,,,0.00,HR-IXPWINDi_r2_v1.2.,2013-04-27 16:34:00,
2013-04-27 12:40:00,52.7,43.5,30.43,SSE,155,5.0,10.0,71,0.00,,,0.00,HR-IXPWINDi_r2_v1.2.,2013-04-27 16:40:00,
2013-04-27 12:45:00,52.7,43.9,30.42,SE,145,5.0,10.0,72,0.00,,,0.00,HR-IXPWINDi_r2_v1.2.,2013-04-27 16:45:00,
2013-04-27 12:50:00,52.6,43.8,30.42,SSE,148,5.0,10.0,72,0.00,,,0.00,HR-IXPWINDi_r2_v1.2.,2013-04-27 16:50:00,
2013-04-27 12:55:00,53.2,45.4,30.42,SE,136,7.0,10.0,75,0.00,,,0.00,HR-IXPWINDi_r2_v1.2.,2013-04-27 16:55:00,
2013-04-27 13:01:00,53.0,44.2,30.42,SE,139,7.0,9.0,72,0.00,,,0.00,HR-IXPWINDi_r2_v1.2.,2013-04-27 17:01:00,
2013-04-27 13:06:00,53.2,45.1,30.42,SSE,152,4.0,9.0,74,0.00,,,0.00,HR-IXPWINDi_r2_v1.2.,2013-04-27 17:06:00,
2013-04-27 13:11:00,53.3,44.1,30.42,South,179,5.0,9.0,71,0.00,,,0.00,HR-IXPWINDi_r2_v1.2.,2013-04-27 17:11:00,
2013-04-27 13:16:00,53.1,44.3,30.42,SE,127,8.0,9.0,72,0.00,,,0.00,HR-IXPWINDi_r2_v1.2.,2013-04-27 17:16:00,
2013-04-27 13:21:00,53.3,45.2,30.42,SSE,151,5.0,9.0,74,0.00,,,0.00,HR-IXPWINDi_r2_v1.2.,2013-04-27 17:21:00,
2013-04-27 13:27:00,54.1,45.6,30.42,SE,139,3.0,9.0,73,0.00,,,0.00,HR-IXPWINDi_r2_v1.2.,2013-04-27 17:27:00,
2013-04-27 13:32:00,54.0,44.0,30.42,SE,125,9.0,10.0,69,0.00,,,0.00,HR-IXPWINDi_r2_v1.2.,2013-04-27 17:32:00,
2013-04-27 13:37:00,53.6,44.4,30.41,SSE,156,5.0,10.0,71,0.00,,,0.00,HR-IXPWINDi_r2_v1.2.,2013-04-27 17:37:00,
2013-04-27 13:42:00,53.4,44.5,30.41,SE,136,6.0,11.0,72,0.00,,,0.00,HR-IXPWINDi_r2_v1.2.,2013-04-27 17:42:00,
2013-04-27 13:47:00,53.4,43.4,30.41,SSE,160,4.0,11.0,69,0.00,,,0.00,HR-IXPWINDi_r2_v1.2.,2013-04-27 17:47:00,
2013-04-27 13:52:00,53.6,43.6,30.41,SE,132,9.0,11.0,69,0.00,,,0.00,HR-IXPWINDi_r2_v1.2.,2013-04-27 17:52:00,
2013-04-27 13:58:00,52.9,42.2,30.41,ESE,123,8.0,11.0,67,0.00,,,0.00,HR-IXPWINDi_r2_v1.2.,2013-04-27 17:58:00,
2013-04-27 14:03:00,53.2,42.5,30.41,SE,129,4.0,11.0,67,0.00,,,0.00,HR-IXPWINDi_r2_v1.2.,2013-04-27 18:03:00,
2013-04-27 14:08:00,53.2,42.9,30.40,SE,139,7.0,11.0,68,0.00,,,0.00,HR-IXPWINDi_r2_v1.2.,2013-04-27 18:08:00,
2013-04-27 14:13:00,53.3,41.4,30.40,SSE,160,6.0,11.0,64,0.00,,,0.00,HR-IXPWINDi_r2_v1.2.,2013-04-27 18:13:00,
2013-04-27 14:18:00,53.6,41.3,30.40,SSE,148,7.0,11.0,63,0.00,,,0.00,HR-IXPWINDi_r2_v1.2.,2013-04-27 18:18:00,
2013-04-27 14:23:00,53.6,41.3,30.40,SSE,148,9.0,12.0,63,0.00,,,0.00,HR-IXPWINDi_r2_v1.2.,2013-04-27 18:23:00,
2013-04-27 14:29:00,53.6,41.3,30.40,SE,127,10.0,12.0,63,0.00,,,0.00,HR-IXPWINDi_r2_v1.2.,2013-04-27 18:29:00,
2013-04-27 14:34:00,53.6,40.9,30.40,SSE,148,5.0,12.0,62,0.00,,,0.00,HR-IXPWINDi_r2_v1.2.,2013-04-27 18:34:00,
2013-04-27 14:39:00,53.8,41.0,30.40,East,98,4.0,12.0,62,0.00,,,0.00,HR-IXPWINDi_r2_v1.2.,2013-04-27 18:39:00,
2013-04-27 14:44:00,53.9,40.7,30.40,ESE,117,6.0,9.0,61,0.00,,,0.00,HR-IXPWINDi_r2_v1.2.,2013-04-27 18:44:00,
2013-04-27 14:49:00,54.1,40.5,30.40,SSE,150,8.0,10.0,60,0.00,,,0.00,HR-IXPWINDi_r2_v1.2.,2013-04-27 18:49:00,
2013-04-27 14:54:00,54.1,40.0,30.40,SE,143,7.0,11.0,59,0.00,,,0.00,HR-IXPWINDi_r2_v1.2.,2013-04-27 18:54:00,
2013-04-27 15:00:00,53.3,38.9,30.40,SE,134,5.0,12.0,58,0.00,,,0.00,HR-IXPWINDi_r2_v1.2.,2013-04-27 19:00:00,
2013-04-27 15:05:00,53.3,39.7,30.40,SE,137,9.0,12.0,60,0.00,,,0.00,HR-IXPWINDi_r2_v1.2.,2013-04-27 19:05:00,
2013-04-27 15:10:00,53.2,40.5,30.39,SE,131,6.0,10.0,62,0.00,,,0.00,HR-IXPWINDi_r2_v1.2.,2013-04-27 19:10:00,
2013-04-27 15:15:00,53.0,40.3,30.39,SE,131,8.0,10.0,62,0.00,,,0.00,HR-IXPWINDi_r2_v1.2.,2013-04-27 19:15:00,
2013-04-27 15:20:00,52.9,40.6,30.39,SE,129,8.0,13.0,63,0.00,,,0.00,HR-IXPWINDi_r2_v1.2.,2013-04-27 19:20:00,
2013-04-27 15:26:00,52.8,40.9,30.39,SE,132,5.0,13.0,64,0.00,,,0.00,HR-IXPWINDi_r2_v1.2.,2013-04-27 19:26:00,
2013-04-27 15:31:00,52.7,40.8,30.39,ESE,114,10.0,13.0,64,0.00,,,0.00,HR-IXPWINDi_r2_v1.2.,2013-04-27 19:31:00,
2013-04-27 15:36:00,52.6,41.5,30.39,SSE,158,11.0,12.0,66,0.00,,,0.00,HR-IXPWINDi_r2_v1.2.,2013-04-27 19:36:00,
2013-04-27 15:41:00,52.6,41.5,30.39,ESE,111,8.0,12.0,66,0.00,,,0.00,HR-IXPWINDi_r2_v1.2.,2013-04-27 19:41:00,
2013-04-27 15:47:00,52.3,41.6,30.38,SSE,152,7.0,11.0,67,0.00,,,0.00,HR-IXPWINDi_r2_v1.2.,2013-04-27 19:47:00,
2013-04-27 15:52:00,52.8,40.9,30.38,SE,133,10.0,11.0,64,0.00,,,0.00,HR-IXPWINDi_r2_v1.2.,2013-04-27 19:52:00,
2013-04-27 15:57:00,52.3,40.8,30.38,SE,139,5.0,12.0,65,0.00,,,0.00,HR-IXPWINDi_r2_v1.2.,2013-04-27 19:57:00,
2013-04-27 16:02:00,52.4,41.3,30.38,SSE,158,7.0,12.0,66,0.00,,,0.00,HR-IXPWINDi_r2_v1.2.,2013-04-27 20:02:00,
2013-04-27 16:07:00,52.4,41.7,30.38,SSE,148,9.0,12.0,67,0.00,,,0.00,HR-IXPWINDi_r2_v1.2.,2013-04-27 20:07:00,
2013-04-27 16:12:00,52.8,42.9,30.38,SE,140,7.0,12.0,69,0.00,,,0.00,HR-IXPWINDi_r2_v1.2.,2013-04-27 20:12:00,
2013-04-27 16:18:00,52.6,41.9,30.38,East,89,5.0,9.0,67,0.00,,,0.00,HR-IXPWINDi_r2_v1.2.,2013-04-27 20:18:00,
2013-04-27 16:23:00,52.6,42.7,30.38,SE,136,8.0,9.0,69,0.00,,,0.00,HR-IXPWINDi_r2_v1.2.,2013-04-27 20:23:00,
2013-04-27 16:28:00,52.4,41.7,30.38,SE,125,7.0,10.0,67,0.00,,,0.00,HR-IXPWINDi_r2_v1.2.,2013-04-27 20:28:00,
2013-04-27 16:33:00,52.5,42.2,30.38,SE,129,5.0,10.0,68,0.00,,,0.00,HR-IXPWINDi_r2_v1.2.,2013-04-27 20:33:00,
2013-04-27 16:38:00,52.7,42.4,30.37,SSE,150,5.0,10.0,68,0.00,,,0.00,HR-IXPWINDi_r2_v1.2.,2013-04-27 20:38:00,
2013-04-27 16:43:00,52.5,41.8,30.37,SSE,164,5.0,11.0,67,0.00,,,0.00,HR-IXPWINDi_r2_v1.2.,2013-04-27 20:43:00,
2013-04-27 16:49:00,52.5,41.8,30.38,SSE,150,9.0,11.0,67,0.00,,,0.00,HR-IXPWINDi_r2_v1.2.,2013-04-27 20:49:00,
2013-04-27 16:54:00,52.3,41.6,30.37,SE,144,5.0,11.0,67,0.00,,,0.00,HR-IXPWINDi_r2_v1.2.,2013-04-27 20:54:00,
2013-04-27 16:59:00,51.9,41.6,30.37,SE,137,7.0,12.0,68,0.00,,,0.00,HR-IXPWINDi_r2_v1.2.,2013-04-27 20:59:00,
2013-04-27 17:04:00,52.0,42.5,30.37,SE,124,5.0,12.0,70,0.00,,,0.00,HR-IXPWINDi_r2_v1.2.,2013-04-27 21:04:00,
2013-04-27 17:10:00,52.1,42.2,30.37,SE,145,7.0,10.0,69,0.00,,,0.00,HR-IXPWINDi_r2_v1.2.,2013-04-27 21:10:00,
2013-04-27 17:15:00,51.8,41.5,30.37,SSE,158,5.0,11.0,68,0.00,,,0.00,HR-IXPWINDi_r2_v1.2.,2013-04-27 21:15:00,
2013-04-27 17:20:00,51.7,41.8,30.37,SE,140,8.0,11.0,69,0.00,,,0.00,HR-IXPWINDi_r2_v1.2.,2013-04-27 21:20:00,
2013-04-27 17:25:00,51.9,42.4,30.37,SE,138,11.0,12.0,70,0.00,,,0.00,HR-IXPWINDi_r2_v1.2.,2013-04-27 21:25:00,
2013-04-27 17:30:00,51.8,42.3,30.37,SE,138,8.0,12.0,70,0.00,,,0.00,HR-IXPWINDi_r2_v1.2.,2013-04-27 21:30:00,
2013-04-27 17:35:00,52.1,43.3,30.37,South,180,7.0,11.0,72,0.00,,,0.00,HR-IXPWINDi_r2_v1.2.,2013-04-27 21:35:00,
2013-04-27 17:41:00,52.2,43.8,30.37,East,92,5.0,11.0,73,0.00,,,0.00,HR-IXPWINDi_r2_v1.2.,2013-04-27 21:41:00,
2013-04-27 17:46:00,52.0,42.5,30.37,SE,135,8.0,11.0,70,0.00,,,0.00,HR-IXPWINDi_r2_v1.2.,2013-04-27 21:46:00,
2013-04-27 17:51:00,51.6,42.5,30.37,SE,141,9.0,11.0,71,0.00,,,0.00,HR-IXPWINDi_r2_v1.2.,2013-04-27 21:51:00,
2013-04-27 17:56:00,51.6,42.8,30.37,SSE,148,6.0,11.0,72,0.00,,,0.00,HR-IXPWINDi_r2_v1.2.,2013-04-27 21:56:00,
2013-04-27 18:02:00,51.6,42.8,30.37,SSE,158,5.0,11.0,72,0.00,,,0.00,HR-IXPWINDi_r2_v1.2.,2013-04-27 22:02:00,
2013-04-27 18:07:00,51.3,41.8,30.37,SSE,150,9.0,10.0,70,0.00,,,0.00,HR-IXPWINDi_r2_v1.2.,2013-04-27 22:07:00,
2013-04-27 18:12:00,51.3,43.2,30.37,SSE,151,6.0,10.0,74,0.00,,,0.00,HR-IXPWINDi_r2_v1.2.,2013-04-27 22:12:00,
2013-04-27 18:17:00,51.3,43.2,30.37,South,170,8.0,10.0,74,0.00,,,0.00,HR-IXPWINDi_r2_v1.2.,2013-04-27 22:17:00,
2013-04-27 18:22:00,51.1,42.7,30.36,SE,137,8.0,10.0,73,0.00,,,0.00,HR-IXPWINDi_r2_v1.2.,2013-04-27 22:22:00,
2013-04-27 18:27:00,50.8,42.8,30.36,South,169,8.0,10.0,74,0.00,,,0.00,HR-IXPWINDi_r2_v1.2.,2013-04-27 22:27:00,
2013-04-27 18:33:00,50.8,43.1,30.36,SSE,155,7.0,10.0,75,0.00,,,0.00,HR-IXPWINDi_r2_v1.2.,2013-04-27 22:33:00,
2013-04-27 18:38:00,50.6,42.9,30.36,SSE,162,7.0,9.0,75,0.00,,,0.00,HR-IXPWINDi_r2_v1.2.,2013-04-27 22:38:00,
2013-04-27 18:43:00,50.6,42.9,30.36,SSE,158,7.0,9.0,75,0.00,,,0.00,HR-IXPWINDi_r2_v1.2.,2013-04-27 22:43:00,
2013-04-27 18:48:00,50.6,43.3,30.36,SSE,150,5.0,8.0,76,0.00,,,0.00,HR-IXPWINDi_r2_v1.2.,2013-04-27 22:48:00,
2013-04-27 18:53:00,50.4,43.1,30.36,SSE,165,5.0,8.0,76,0.00,,,0.00,HR-IXPWINDi_r2_v1.2.,2013-04-27 22:53:00,
2013-04-27 18:58:00,50.4,43.1,30.36,SE,145,4.0,8.0,76,0.00,,,0.00,HR-IXPWINDi_r2_v1.2.,2013-04-27 22:58:00,
2013-04-27 19:04:00,50.0,43.0,30.36,SE,139,5.0,6.0,77,0.00,,,0.00,HR-IXPWINDi_r2_v1.2.,2013-04-27 23:04:00,
2013-04-27 19:09:00,49.8,42.8,30.36,SE,145,4.0,6.0,77,0.00,,,0.00,HR-IXPWINDi_r2_v1.2.,2013-04-27 23:09:00,
2013-04-27 19:14:00,49.4,42.8,30.37,SE,136,5.0,6.0,78,0.00,,,0.00,HR-IXPWINDi_r2_v1.2.,2013-04-27 23:14:00,
2013-04-27 19:19:00,49.2,42.9,30.36,SE,136,2.0,6.0,79,0.00,,,0.00,HR-IXPWINDi_r2_v1.2.,2013-04-27 23:19:00,
2013-04-27 19:25:00,49.0,42.7,30.36,SE,135,3.0,6.0,79,0.00,,,0.00,HR-IXPWINDi_r2_v1.2.,2013-04-27 23:25:00,
2013-04-27 19:30:00,48.8,42.9,30.37,SE,141,2.0,5.0,80,0.00,,,0.00,HR-IXPWINDi_r2_v1.2.,2013-04-27 23:30:00,
2013-04-27 19:35:00,48.6,42.7,30.36,SE,137,3.0,5.0,80,0.00,,,0.00,HR-IXPWINDi_r2_v1.2.,2013-04-27 23:35:00,
2013-04-27 19:40:00,48.4,42.8,30.36,SSE,158,4.0,5.0,81,0.00,,,0.00,HR-IXPWINDi_r2_v1.2.,2013-04-27 23:40:00,
2013-04-27 19:45:00,48.3,42.7,30.36,SSE,150,2.0,5.0,81,0.00,,,0.00,HR-IXPWINDi_r2_v1.2.,2013-04-27 23:45:00,
2013-04-27 19:51:00,48.1,42.5,30.36,SE,145,3.0,5.0,81,0.00,,,0.00,HR-IXPWINDi_r2_v1.2.,2013-04-27 23:51:00,
2013-04-27 19:56:00,48.1,42.8,30.37,SE,145,2.0,4.0,82,0.00,,,0.00,HR-IXPWINDi_r2_v1.2.,2013-04-27 23:56:00,
2013-04-27 20:01:00,48.0,42.7,30.36,SE,142,3.0,4.0,82,0.00,,,0.00,HR-IXPWINDi_r2_v1.2.,2013-04-28 00:01:00,
2013-04-27 20:06:00,48.0,43.0,30.36,SSE,153,2.0,4.0,83,0.00,,,0.00,HR-IXPWINDi_r2_v1.2.,2013-04-28 00:06:00,
2013-04-27 20:11:00,47.9,42.9,30.36,SSE,155,2.0,4.0,83,0.00,,,0.00,HR-IXPWINDi_r2_v1.2.,2013-04-28 00:11:00,
2013-04-27 20:17:00,47.8,42.8,30.36,SSE,155,2.0,3.0,83,0.00,,,0.00,HR-IXPWINDi_r2_v1.2.,2013-04-28 00:17:00,
2013-04-27 20:22:00,47.7,43.0,30.36,SE,139,2.0,3.0,84,0.00,,,0.00,HR-IXPWINDi_r2_v1.2.,2013-04-28 00:22:00,
2013-04-27 20:27:00,47.7,43.0,30.37,SSE,153,2.0,3.0,84,0.00,,,0.00,HR-IXPWINDi_r2_v1.2.,2013-04-28 00:27:00,
2013-04-27 20:32:00,47.7,43.0,30.37,SE,138,2.0,3.0,84,0.00,,,0.00,HR-IXPWINDi_r2_v1.2.,2013-04-28 00:32:00,
2013-04-27 20:37:00,47.6,43.0,30.37,SE,136,2.0,3.0,84,0.00,,,0.00,HR-IXPWINDi_r2_v1.2.,2013-04-28 00:37:00,
2013-04-27 20:42:00,47.6,43.0,30.37,SE,141,1.0,3.0,84,0.00,,,0.00,HR-IXPWINDi_r2_v1.2.,2013-04-28 00:42:00,
2013-04-27 20:48:00,47.5,42.9,30.37,SSE,152,2.0,2.0,84,0.00,,,0.00,HR-IXPWINDi_r2_v1.2.,2013-04-28 00:48:00,
2013-04-27 20:53:00,47.5,43.2,30.37,SE,138,2.0,3.0,85,0.00,,,0.00,HR-IXPWINDi_r2_v1.2.,2013-04-28 00:53:00,
2013-04-27 20:58:00,47.5,42.9,30.37,SSE,158,1.0,3.0,84,0.00,,,0.00,HR-IXPWINDi_r2_v1.2.,2013-04-28 00:58:00,
2013-04-27 21:03:00,47.4,42.8,30.37,SSE,150,1.0,3.0,84,0.00,,,0.00,HR-IXPWINDi_r2_v1.2.,2013-04-28 01:03:00,
2013-04-27 21:09:00,47.4,43.1,30.37,SSE,165,0.0,3.0,85,0.00,,,0.00,HR-IXPWINDi_r2_v1.2.,2013-04-28 01:09:00,
2013-04-27 21:14:00,47.4,43.4,30.37,SSE,162,1.0,3.0,86,0.00,,,0.00,HR-IXPWINDi_r2_v1.2.,2013-04-28 01:14:00,
2013-04-27 21:19:00,47.4,43.7,30.38,SSW,197,2.0,3.0,87,0.00,,,0.00,HR-IXPWINDi_r2_v1.2.,2013-04-28 01:19:00,
2013-04-27 21:24:00,47.4,43.7,30.38,SSE,167,2.0,4.0,87,0.00,,,0.00,HR-IXPWINDi_r2_v1.2.,2013-04-28 01:24:00,
2013-04-27 21:29:00,47.5,43.8,30.38,SSE,165,2.0,4.0,87,0.00,,,0.00,HR-IXPWINDi_r2_v1.2.,2013-04-28 01:29:00,
2013-04-27 21:35:00,47.5,43.8,30.38,South,186,2.0,4.0,87,0.00,,,0.00,HR-IXPWINDi_r2_v1.2.,2013-04-28 01:35:00,
2013-04-27 21:40:00,47.4,43.7,30.38,South,169,3.0,3.0,87,0.00,,,0.00,HR-IXPWINDi_r2_v1.2.,2013-04-28 01:40:00,
2013-04-27 21:45:00,47.3,43.3,30.38,South,186,1.0,3.0,86,0.00,,,0.00,HR-IXPWINDi_r2_v1.2.,2013-04-28 01:45:00,
2013-04-27 21:50:00,47.3,43.6,30.38,SSW,197,2.0,3.0,87,0.00,,,0.00,HR-IXPWINDi_r2_v1.2.,2013-04-28 01:50:00,
2013-04-27 21:56:00,47.3,43.3,30.38,SSW,212,2.0,3.0,86,0.00,,,0.00,HR-IXPWINDi_r2_v1.2.,2013-04-28 01:56:00,
2013-04-27 22:01:00,47.3,43.6,30.38,SSW,200,1.0,3.0,87,0.00,,,0.00,HR-IXPWINDi_r2_v1.2.,2013-04-28 02:01:00,
2013-04-27 22:06:00,47.3,43.6,30.38,SSW,204,2.0,3.0,87,0.00,,,0.00,HR-IXPWINDi_r2_v1.2.,2013-04-28 02:06:00,
2013-04-27 22:11:00,47.3,43.6,30.38,SW,215,2.0,4.0,87,0.00,,,0.00,HR-IXPWINDi_r2_v1.2.,2013-04-28 02:11:00,
2013-04-27 22:16:00,47.3,43.3,30.38,SW,222,4.0,4.0,86,0.00,,,0.00,HR-IXPWINDi_r2_v1.2.,2013-04-28 02:16:00,
2013-04-27 22:21:00,47.3,43.6,30.38,SSW,212,2.0,4.0,87,0.00,,,0.00,HR-IXPWINDi_r2_v1.2.,2013-04-28 02:21:00,
2013-04-27 22:27:00,47.2,43.5,30.38,SSW,204,1.0,4.0,87,0.00,,,0.00,HR-IXPWINDi_r2_v1.2.,2013-04-28 02:27:00,
2013-04-27 22:32:00,47.2,43.5,30.38,South,176,1.0,2.0,87,0.00,,,0.00,HR-IXPWINDi_r2_v1.2.,2013-04-28 02:32:00,
2013-04-27 22:37:00,47.1,43.4,30.38,SW,217,2.0,2.0,87,0.00,,,0.00,HR-IXPWINDi_r2_v1.2.,2013-04-28 02:37:00,
2013-04-27 22:42:00,46.9,43.2,30.37,WSW,257,2.0,2.0,87,0.00,,,0.00,HR-IXPWINDi_r2_v1.2.,2013-04-28 02:42:00,
2013-04-27 22:47:00,46.5,42.8,30.37,WSW,243,1.0,2.0,87,0.00,,,0.00,HR-IXPWINDi_r2_v1.2.,2013-04-28 02:47:00,
2013-04-27 22:52:00,46.4,43.0,30.38,WSW,257,1.0,2.0,88,0.00,,,0.00,HR-IXPWINDi_r2_v1.2.,2013-04-28 02:52:00,
2013-04-27 22:57:00,46.2,42.8,30.38,SW,228,0.0,2.0,88,0.00,,,0.00,HR-IXPWINDi_r2_v1.2.,2013-04-28 02:57:00,
2013-04-27 23:03:00,45.7,42.0,30.37,SW,228,0.0,2.0,87,0.00,,,0.00,HR-IXPWINDi_r2_v1.2.,2013-04-28 03:03:00,
2013-04-27 23:08:00,45.2,42.1,30.38,SW,228,0.0,0.0,89,0.00,,,0.00,HR-IXPWINDi_r2_v1.2.,2013-04-28 03:08:00,
2013-04-27 23:13:00,45.1,42.3,30.38,WSW,255,0.0,1.0,90,0.00,,,0.00,HR-IXPWINDi_r2_v1.2.,2013-04-28 03:13:00,
2013-04-27 23:18:00,44.6,41.5,30.38,WSW,256,0.0,1.0,89,0.00,,,0.00,HR-IXPWINDi_r2_v1.2.,2013-04-28 03:18:00,
2013-04-27 23:24:00,44.8,42.0,30.38,WNW,283,1.0,2.0,90,0.00,,,0.00,HR-IXPWINDi_r2_v1.2.,2013-04-28 03:24:00,
2013-04-27 23:29:00,44.8,42.0,30.38,West,280,1.0,2.0,90,0.00,,,0.00,HR-IXPWINDi_r2_v1.2.,2013-04-28 03:29:00,
2013-04-27 23:34:00,44.9,41.8,30.38,WNW,293,1.0,2.0,89,0.00,,,0.00,HR-IXPWINDi_r2_v1.2.,2013-04-28 03:34:00,
2013-04-27 23:39:00,44.9,42.1,30.38,WSW,250,1.0,2.0,90,0.00,,,0.00,HR-IXPWINDi_r2_v1.2.,2013-04-28 03:39:00,
2013-04-27 23:44:00,44.7,41.6,30.38,WSW,253,0.0,1.0,89,0.00,,,0.00,HR-IXPWINDi_r2_v1.2.,2013-04-28 03:44:00,
2013-04-27 23:49:00,44.4,41.3,30.38,WSW,254,0.0,1.0,89,0.00,,,0.00,HR-IXPWINDi_r2_v1.2.,2013-04-28 03:49:00,
2013-04-27 23:54:00,43.9,41.1,30.38,WSW,252,0.0,0.0,90,0.00,,,0.00,HR-IXPWINDi_r2_v1.2.,2013-04-28 03:54:00,